KCPR/CPR METAR and TAF weather

Enter ICAO airport designator
Station Type Date Time Source
KCPR METAR 2019/02/20 22:53 UTC NOAA

KCPR 202253Z 25020G26KT 10SM CLR M03/M14 A2956 RMK AO2 PK WND 25028/2216 SLP060 T10331144


Station Type Date Time Source
KCPR Decoded METAR 2019/02/20 22:53 UTC NOAA

NATRONA COUNTY INTERNATIONAL AIRPORT , WY, United States (KCPR) 42-54N 106-28W 1621M
Feb 20, 2019 - 05:53 PM EST / 2019.02.20 2253 UTC
Wind: from the WSW (250 degrees) at 23 MPH (20 KT) gusting to 30 MPH (26 KT):0
Visibility: 10 mile(s):0
Sky conditions: clear
Temperature: 26.1 F (-3.3 C)
Windchill: 12 F (-11 C):1
Dew Point: 6.1 F (-14.4 C)
Relative Humidity: 41%
Pressure (altimeter): 29.56 in. Hg (1001 hPa)
ob: KCPR 202253Z 25020G26KT 10SM CLR M03/M14 A2956 RMK AO2 PK WND 25028/2216 SLP060 T10331144
cycle: 23

Station Type Date Time Source
KCPR TAF 2019/02/20 21:18 UTC NOAA

TAF
AMD KCPR 202116Z 2021/2118 23015G25KT P6SM SKC
FM202300 23010KT P6SM SCT100 BKN200
FM210900 01006KT P6SM BKN100
FM211400 02007KT P6SM OVC030
FM211700 02012G22KT P6SM -SN OVC020


Example: see airport list